Time;durP1;ratioP1;P1;durP2;ratioP2;P2;SDS_P1;SDS_P2;PMS_P1;PMS_P2;Temp;Humidity;BMP_temperature;BMP_pressure;BME280_temperature;BME280_humidity;BME280_pressure;Samples;Min_cycle;Max_cycle;Signal;HPM_P1;HPM_P2
2023/03/31 07:01:19;;;;;;;1.60;1.50;;;11.70;99.90;13.30;99133.00;;;;6308847;22;20177;-83
2023/03/31 07:03:45;;;;;;;2.57;2.37;;;11.70;99.90;13.50;99129.00;;;;6282526;22;20176;-82
2023/03/31 07:06:11;;;;;;;1.30;1.30;;;11.80;99.90;13.20;99129.00;;;;6282343;22;20554;-81
2023/03/31 07:08:37;;;;;;;1.10;1.10;;;11.70;99.90;13.20;99129.00;;;;6309533;22;20136;-82
2023/03/31 07:11:03;;;;;;;2.57;2.37;;;11.70;99.90;13.30;99115.00;;;;6309433;22;20149;-82
2023/03/31 07:13:30;;;;;;;2.20;2.07;;;11.70;99.90;13.80;99129.00;;;;6309259;22;20168;-82
2023/03/31 07:15:56;;;;;;;1.20;1.20;;;11.80;99.90;13.70;99091.00;;;;6282121;22;20187;-81
2023/03/31 07:18:30;;;;;;;1.33;1.30;;;11.80;99.90;13.50;99112.00;;;;6309311;22;20510;-80
2023/03/31 07:20:58;;;;;;;2.10;2.00;;;11.80;99.90;13.60;99120.00;;;;6283574;22;20137;-80
2023/03/31 07:23:24;;;;;;;1.10;1.10;;;11.90;99.90;13.90;99127.00;;;;6282263;22;20188;-80
2023/03/31 07:25:50;;;;;;;1.17;1.17;;;12.00;99.90;13.80;99116.00;;;;6309391;22;20141;-81
2023/03/31 07:28:21;;;;;;;1.30;1.30;;;12.10;99.90;13.70;99091.00;;;;6281885;22;20167;-81
2023/03/31 07:30:47;;;;;;;1.80;1.70;;;12.00;99.90;13.80;99116.00;;;;6308494;22;20466;-80
2023/03/31 07:33:13;;;;;;;11.93;3.20;;;12.00;99.90;13.80;99114.00;;;;6309426;22;20229;-78
2023/03/31 07:35:40;;;;;;;1.90;1.20;;;12.00;99.90;13.00;99108.00;;;;6309223;22;20217;-79
2023/03/31 07:38:09;;;;;;;1.47;1.37;;;11.90;99.90;13.70;99115.00;;;;6282228;22;20146;-79
2023/03/31 07:40:36;;;;;;;1.40;1.30;;;12.00;99.90;13.30;99105.00;;;;6308675;22;20149;-79
2023/03/31 07:43:05;;;;;;;1.27;1.27;;;12.00;99.90;13.40;99102.00;;;;6282123;22;20167;-78
2023/03/31 07:45:34;;;;;;;1.00;1.00;;;12.00;99.90;14.50;99112.00;;;;6308702;22;20153;-79
2023/03/31 07:48:06;;;;;;;1.67;1.67;;;12.20;99.90;14.40;99115.00;;;;6281974;22;20634;-79
2023/03/31 07:50:32;;;;;;;2.13;1.50;;;12.40;99.90;14.40;99101.00;;;;6308702;22;20217;-78
2023/03/31 07:52:58;;;;;;;1.03;1.03;;;12.40;99.90;14.00;99110.00;;;;6281862;22;20159;-79
2023/03/31 07:55:47;;;;;;;2.97;2.77;;;12.40;99.90;13.40;99110.00;;;;6281020;22;20233;-79
2023/03/31 07:58:18;;;;;;;1.23;1.17;;;12.20;99.90;14.00;99096.00;;;;6257890;22;20470;-80
2023/03/31 08:00:44;;;;;;;1.17;1.13;;;12.40;99.90;13.40;99102.00;;;;6275733;22;20163;-78
2023/03/31 08:03:59;;;;;;;0.80;0.80;;;12.20;99.90;13.80;99107.00;;;;6276455;22;20182;-78
2023/03/31 08:07:02;;;;;;;0.90;0.90;;;12.20;99.90;13.70;99066.00;;;;6265183;22;20158;-79
2023/03/31 08:09:29;;;;;;;4.30;1.47;;;12.20;99.90;13.40;99094.00;;;;6250555;22;20166;-78
2023/03/31 08:12:20;;;;;;;3.23;1.17;;;12.10;99.90;13.70;99081.00;;;;6276717;22;20143;-79
2023/03/31 08:15:25;;;;;;;1.83;1.73;;;12.10;99.90;13.60;99056.00;;;;6250587;22;20159;-79
2023/03/31 08:17:51;;;;;;;3.20;2.23;;;12.10;99.90;13.80;99083.00;;;;6250669;22;20207;-79
2023/03/31 08:20:19;;;;;;;2.50;1.30;;;12.20;99.90;14.00;99087.00;;;;6250470;22;20159;-79
2023/03/31 08:22:45;;;;;;;3.17;2.93;;;12.20;99.90;13.50;99049.00;;;;6276162;22;20243;-79
2023/03/31 08:25:14;;;;;;;3.87;1.30;;;12.10;99.90;13.50;99055.00;;;;6276429;22;20182;-78
2023/03/31 08:28:09;;;;;;;1.20;1.20;;;12.10;99.90;13.50;99074.00;;;;6276203;22;20463;-78
2023/03/31 08:31:02;;;;;;;0.90;0.90;;;12.10;99.90;14.40;99066.00;;;;6251214;22;20657;-78
2023/03/31 08:34:09;;;;;;;2.63;0.97;;;12.20;99.90;14.10;99057.00;;;;6260977;22;20166;-78
2023/03/31 08:36:37;;;;;;;2.17;1.30;;;12.40;99.90;14.40;99075.00;;;;6269931;22;20221;-78
2023/03/31 08:39:03;;;;;;;1.37;1.20;;;12.60;99.90;14.40;99066.00;;;;6243121;22;20194;-88
2023/03/31 08:41:41;;;;;;;1.47;1.13;;;12.60;99.90;14.10;99071.00;;;;6270886;22;20194;-85
2023/03/31 08:44:59;;;;;;;5.50;1.10;;;12.70;99.90;14.00;99055.00;;;;6270459;22;20148;-84
2023/03/31 08:47:28;;;;;;;1.40;0.87;;;12.50;99.90;13.80;99051.00;;;;6152834;22;20251;-85
2023/03/31 08:50:04;;;;;;;2.53;1.23;;;12.50;99.90;14.00;99048.00;;;;6250786;22;20234;-85
2023/03/31 08:52:39;;;;;;;6.30;1.87;;;12.50;99.90;14.00;99038.00;;;;6250680;22;20166;-74
2023/03/31 08:55:11;;;;;;;0.90;0.90;;;12.50;99.90;14.00;99041.00;;;;6226770;22;20159;-74
2023/03/31 08:58:15;;;;;;;1.70;1.20;;;12.50;99.90;14.20;99050.00;;;;6275384;22;20222;-77
2023/03/31 09:01:31;;;;;;;1.33;1.00;;;12.60;99.90;14.70;99043.00;;;;6262182;22;20174;-77
2023/03/31 09:04:31;;;;;;;5.97;1.33;;;12.70;99.90;14.50;99047.00;;;;6240165;22;20167;-76
2023/03/31 09:07:51;;;;;;;3.13;2.97;;;12.90;99.90;14.00;99039.00;;;;6250122;22;20208;-74
2023/03/31 09:10:33;;;;;;;3.30;1.20;;;12.70;99.90;14.80;99033.00;;;;6170826;22;20230;-68
2023/03/31 09:13:30;;;;;;;1.53;0.83;;;12.90;99.90;13.90;99032.00;;;;6250326;22;20205;-72
2023/03/31 09:16:34;;;;;;;5.80;1.33;;;12.70;99.90;13.90;99030.00;;;;6250258;22;20169;-75
2023/03/31 09:19:01;;;;;;;1.30;0.83;;;12.60;99.90;13.70;99027.00;;;;6148874;22;20170;-71
2023/03/31 09:21:30;;;;;;;7.00;1.60;;;12.40;99.90;13.80;99017.00;;;;6250577;22;20176;-75
2023/03/31 09:24:15;;;;;;;1.87;1.30;;;12.40;99.90;13.70;98999.00;;;;6250112;22;20186;-72
2023/03/31 09:27:00;;;;;;;1.50;1.40;;;12.40;99.90;13.80;99005.00;;;;6249875;22;20215;-73
2023/03/31 09:29:37;;;;;;;4.43;1.43;;;12.40;99.90;13.70;99016.00;;;;6223910;22;20205;-73
2023/03/31 09:32:37;;;;;;;3.10;1.47;;;12.40;99.90;13.90;98998.00;;;;6277083;22;20281;-73
2023/03/31 09:35:34;;;;;;;4.50;1.40;;;12.40;99.90;13.40;98997.00;;;;6168862;22;20637;-73
2023/03/31 09:38:00;;;;;;;1.87;1.23;;;12.40;99.90;13.60;98955.00;;;;6218674;22;20163;-72
2023/03/31 09:40:28;;;;;;;3.47;0.93;;;12.40;99.90;14.50;98978.00;;;;6249824;22;20200;-73
2023/03/31 09:43:25;;;;;;;2.07;1.00;;;12.60;99.90;13.70;98976.00;;;;6249961;22;20181;-76
2023/03/31 09:45:52;;;;;;;6.60;2.67;;;12.50;99.90;14.10;98972.00;;;;6250139;22;20235;-75
2023/03/31 09:48:24;;;;;;;1.30;1.10;;;12.50;99.90;13.70;98950.00;;;;6249818;22;20142;-75
2023/03/31 09:51:05;;;;;;;2.20;1.17;;;12.40;99.90;14.30;98980.00;;;;6250152;22;20559;-74
2023/03/31 09:54:14;;;;;;;3.50;0.90;;;12.60;99.90;14.30;98987.00;;;;6224209;22;20164;-73
2023/03/31 09:56:47;;;;;;;0.60;0.60;;;12.60;99.90;14.70;98966.00;;;;6260058;22;20159;-73
2023/03/31 09:59:40;;;;;;;15.13;1.93;;;12.80;99.90;14.60;98987.00;;;;6224781;22;20224;-73
2023/03/31 10:02:36;;;;;;;2.10;0.63;;;12.80;99.90;14.30;98989.00;;;;6218058;22;20191;-73
2023/03/31 10:05:36;;;;;;;2.30;1.50;;;12.80;99.90;14.70;98984.00;;;;6249919;22;20231;-72
2023/03/31 10:08:20;;;;;;;4.43;1.30;;;12.80;99.90;13.70;98975.00;;;;6249814;22;20226;-73
2023/03/31 10:10:57;;;;;;;0.60;0.60;;;12.60;99.90;14.50;98976.00;;;;6276627;22;20197;-73
2023/03/31 10:13:46;;;;;;;2.53;1.07;;;12.60;99.90;13.80;98977.00;;;;6276657;22;20213;-73
2023/03/31 10:16:42;;;;;;;2.97;0.93;;;12.50;99.90;14.70;98979.00;;;;6249663;22;20201;-73
2023/03/31 10:19:28;;;;;;;6.13;1.33;;;12.70;99.90;15.10;98995.00;;;;6249449;22;20189;-73
2023/03/31 10:33:48;;;;;;;3.67;1.87;;;12.40;99.90;13.80;98953.00;;;;5090473;27;20573;-70
2023/03/31 10:36:50;;;;;;;0.43;0.43;;;12.60;99.90;15.20;98960.00;;;;5070490;28;20276;-71
2023/03/31 10:39:18;;;;;;;1.73;1.07;;;13.00;99.90;15.10;98971.00;;;;5045613;28;20181;-70
2023/03/31 10:41:54;;;;;;;2.03;0.90;;;13.20;99.90;14.70;98934.00;;;;5044306;28;20358;-70
2023/03/31 10:44:37;;;;;;;0.40;0.40;;;13.00;99.90;14.70;98968.00;;;;5068023;28;20188;-69
2023/03/31 10:47:23;;;;;;;1.17;1.13;;;13.00;99.90;14.30;98926.00;;;;5052180;28;20190;-69
2023/03/31 10:49:56;;;;;;;4.23;2.77;;;12.90;99.90;15.40;98951.00;;;;5068554;28;20224;-70
2023/03/31 10:52:26;;;;;;;2.40;2.10;;;13.00;99.90;14.50;98931.00;;;;5061991;28;20209;-70
2023/03/31 10:55:17;;;;;;;0.63;0.63;;;12.90;99.90;14.90;98952.00;;;;5049203;28;20176;-70
2023/03/31 10:57:57;;;;;;;1.13;1.13;;;12.90;99.90;14.70;98968.00;;;;5049076;28;20191;-70
2023/03/31 11:00:31;;;;;;;0.40;0.40;;;13.00;99.90;14.40;98933.00;;;;5052015;28;20531;-70
2023/03/31 11:03:42;;;;;;;2.10;1.43;;;12.70;99.90;14.40;98944.00;;;;5069492;28;20200;-70
2023/03/31 11:06:58;;;;;;;1.07;0.60;;;12.70;99.90;14.40;98947.00;;;;5059733;28;20193;-69
2023/03/31 11:09:36;;;;;;;1.60;1.33;;;12.60;99.90;15.30;98955.00;;;;5064113;28;20204;-69
2023/03/31 11:12:07;;;;;;;2.30;1.40;;;12.80;99.90;15.50;98935.00;;;;5051798;28;20213;-69
2023/03/31 11:15:26;;;;;;;1.03;0.73;;;13.00;99.90;15.10;98951.00;;;;5069900;28;20271;-69
2023/03/31 11:18:22;;;;;;;1.17;1.17;;;13.00;99.90;14.70;98958.00;;;;5033956;28;20202;-69
2023/03/31 11:21:17;;;;;;;0.60;0.60;;;13.00;99.90;15.10;98935.00;;;;5051793;28;20183;-70
2023/03/31 11:24:30;;;;;;;5.43;2.43;;;12.90;99.90;14.10;98928.00;;;;5065724;28;20181;-70
2023/03/31 11:27:21;;;;;;;7.40;2.10;;;12.60;99.90;14.20;98920.00;;;;5069272;28;20184;-70
2023/03/31 11:30:03;;;;;;;0.60;0.60;;;12.70;99.90;13.90;98914.00;;;;5062612;28;20278;-70
2023/03/31 11:32:59;;;;;;;0.60;0.60;;;12.60;99.90;14.30;98913.00;;;;5060722;28;20732;-70
2023/03/31 11:35:42;;;;;;;4.83;2.63;;;12.70;99.90;14.30;98882.00;;;;5069602;28;20236;-70
2023/03/31 11:38:52;;;;;;;0.40;0.40;;;12.70;99.90;15.30;98922.00;;;;5056068;28;20227;-70
2023/03/31 11:41:49;;;;;;;0.57;0.50;;;13.00;99.90;14.40;98922.00;;;;5066451;28;20208;-71
2023/03/31 11:44:18;;;;;;;0.53;0.53;;;13.00;99.90;14.50;98889.00;;;;5039906;28;20187;-71
2023/03/31 11:46:53;;;;;;;1.73;0.70;;;12.90;99.90;14.10;98912.00;;;;5034284;28;20544;-71
2023/03/31 11:49:37;;;;;;;0.40;0.40;;;12.70;99.90;15.40;98931.00;;;;5041026;28;20292;-71
2023/03/31 11:52:28;;;;;;;1.13;1.03;;;13.00;99.90;14.20;98901.00;;;;5037559;28;20206;-71
2023/03/31 11:55:02;;;;;;;0.40;0.40;;;12.80;99.90;15.10;98884.00;;;;5052656;28;20182;-70
2023/03/31 11:57:44;;;;;;;2.10;1.47;;;12.80;99.90;15.20;98934.00;;;;5027066;28;20323;-70
2023/03/31 12:00:27;;;;;;;2.63;1.27;;;13.00;99.90;15.30;98919.00;;;;5054490;28;20240;-69
2023/03/31 12:03:37;;;;;;;1.63;0.83;;;12.90;99.90;14.10;98869.00;;;;5054026;28;20247;-69
2023/03/31 12:06:17;;;;;;;0.50;0.50;;;12.70;99.90;15.10;98913.00;;;;5037361;28;20204;-69
2023/03/31 12:09:24;;;;;;;0.97;0.50;;;12.80;99.90;14.00;98879.00;;;;5031997;28;20272;-69
2023/03/31 12:12:13;;;;;;;1.07;0.90;;;12.50;99.90;14.20;98907.00;;;;5023832;28;20235;-69
2023/03/31 12:14:50;;;;;;;0.80;0.80;;;12.40;99.90;14.20;98915.00;;;;5050789;28;20258;-70
2023/03/31 12:17:25;;;;;;;0.40;0.40;;;12.30;99.90;14.20;98907.00;;;;5037661;28;20244;-70
2023/03/31 12:19:55;;;;;;;2.57;1.27;;;12.30;99.90;13.70;98902.00;;;;5037164;28;20267;-70
2023/03/31 12:22:33;;;;;;;1.80;0.83;;;12.30;99.90;13.60;98886.00;;;;5043496;28;20327;-70
2023/03/31 12:24:59;;;;;;;0.60;0.60;;;12.10;99.90;14.10;98902.00;;;;5052126;28;20205;-70
2023/03/31 12:27:49;;;;;;;0.60;0.60;;;12.30;99.90;13.60;98892.00;;;;5054931;28;20194;-70
2023/03/31 12:30:28;;;;;;;0.40;0.40;;;12.40;99.90;14.90;98884.00;;;;5029680;28;20275;-71
2023/03/31 12:33:23;;;;;;;0.40;0.40;;;12.60;99.90;14.60;98865.00;;;;5043309;28;20601;-71
2023/03/31 12:36:00;;;;;;;0.50;0.50;;;12.60;99.90;14.10;98848.00;;;;5054508;28;20188;-72
2023/03/31 12:38:50;;;;;;;0.90;0.60;;;12.50;99.90;13.90;98899.00;;;;5053903;28;20192;-70
2023/03/31 12:41:55;;;;;;;1.67;0.80;;;12.50;99.90;14.00;98890.00;;;;5045906;28;20536;-71
2023/03/31 12:44:45;;;;;;;4.37;0.87;;;12.50;99.90;13.40;98871.00;;;;5036874;28;20209;-71
2023/03/31 12:47:56;;;;;;;0.30;0.30;;;12.60;99.90;13.80;98884.00;;;;5054210;28;20194;-71
2023/03/31 12:50:43;;;;;;;0.40;0.40;;;12.70;99.90;15.20;98849.00;;;;5020421;28;20209;-72
2023/03/31 12:53:56;;;;;;;0.40;0.40;;;12.90;99.90;15.60;98892.00;;;;5054180;28;20205;-71
2023/03/31 12:56:22;;;;;;;0.40;0.40;;;13.30;99.90;16.40;98901.00;;;;5049069;28;20214;-71
2023/03/31 12:59:34;;;;;;;0.40;0.40;;;13.70;99.90;15.40;98900.00;;;;5054042;28;20629;-71
2023/03/31 13:02:27;;;;;;;0.60;0.60;;;13.50;99.90;15.50;98911.00;;;;5036338;28;20199;-70
2023/03/31 13:04:53;;;;;;;0.40;0.40;;;13.70;99.90;15.60;98872.00;;;;5047549;28;20261;-70
2023/03/31 13:07:19;;;;;;;1.27;0.80;;;13.60;99.90;14.70;98881.00;;;;5053920;28;20220;-70
2023/03/31 13:10:17;;;;;;;1.40;0.50;;;13.20;99.90;15.00;98885.00;;;;5052155;28;20665;-70
2023/03/31 13:13:12;;;;;;;0.67;0.47;;;13.30;99.90;15.10;98877.00;;;;5053212;28;20732;-70
2023/03/31 13:16:02;;;;;;;0.73;0.63;;;13.10;99.90;15.30;98866.00;;;;5032754;28;20189;-70
2023/03/31 13:18:54;;;;;;;0.40;0.40;;;13.20;99.90;14.50;98856.00;;;;5053755;28;20191;-70
2023/03/31 13:21:27;;;;;;;0.67;0.67;;;13.00;99.90;14.70;98857.00;;;;5036341;28;20195;-69
2023/03/31 13:24:14;;;;;;;0.30;0.30;;;12.80;99.90;15.10;98855.00;;;;5052933;28;20180;-70
2023/03/31 13:26:46;;;;;;;2.83;1.17;;;13.00;99.90;14.20;98853.00;;;;5038043;28;20186;-69
2023/03/31 13:29:15;;;;;;;0.40;0.40;;;12.80;99.90;15.70;98871.00;;;;5052784;28;20541;-70
2023/03/31 13:31:59;;;;;;;1.27;0.80;;;13.00;99.90;15.30;98873.00;;;;5035602;28;20278;-69
2023/03/31 13:34:35;;;;;;;0.93;0.57;;;13.20;99.90;14.80;98874.00;;;;5053108;28;20547;-69
2023/03/31 13:37:44;;;;;;;0.40;0.40;;;13.10;99.90;14.90;98872.00;;;;5044217;28;20176;-69
2023/03/31 13:40:48;;;;;;;0.50;0.50;;;13.00;99.90;15.70;98856.00;;;;5034977;28;20189;-69
2023/03/31 13:44:00;;;;;;;0.30;0.30;;;13.30;99.90;14.80;98881.00;;;;5053759;28;20194;-69
2023/03/31 13:47:04;;;;;;;1.37;0.90;;;13.00;99.90;15.40;98883.00;;;;5036121;28;20182;-69
2023/03/31 13:50:33;;;;;;;0.67;0.40;;;13.00;99.90;14.90;98880.00;;;;5031165;28;20191;-69
2023/03/31 13:53:28;;;;;;;0.37;0.37;;;13.10;99.90;15.30;98871.00;;;;5053238;28;20251;-69
2023/03/31 13:56:06;;;;;;;0.50;0.43;;;13.00;99.90;13.90;98851.00;;;;5051001;28;20213;-69
2023/03/31 13:58:48;;;;;;;0.57;0.57;;;12.60;99.90;13.20;98819.00;;;;5043667;28;20610;-69
2023/03/31 14:01:46;;;;;;;0.30;0.30;;;12.30;99.90;14.50;98848.00;;;;5051723;28;20226;-69
2023/03/31 14:04:42;;;;;;;0.57;0.57;;;12.40;99.90;14.20;98848.00;;;;5033123;28;20171;-69
2023/03/31 14:07:15;;;;;;;0.40;0.40;;;12.40;99.90;15.30;98869.00;;;;5034989;28;20178;-69
2023/03/31 14:10:03;;;;;;;0.37;0.37;;;12.70;99.90;13.70;98852.00;;;;5049498;28;20260;-69
2023/03/31 14:13:17;;;;;;;0.50;0.50;;;12.20;99.90;14.10;98838.00;;;;5035369;28;20206;-69
2023/03/31 14:16:03;;;;;;;1.90;1.00;;;12.20;99.90;13.40;98843.00;;;;5047250;28;20218;-69
2023/03/31 14:18:33;;;;;;;0.50;0.50;;;12.10;99.90;15.10;98830.00;;;;5034834;28;20709;-69
2023/03/31 14:21:22;;;;;;;0.40;0.40;;;12.50;99.90;14.50;98828.00;;;;5035202;28;20239;-69
2023/03/31 14:24:05;;;;;;;1.83;0.93;;;12.50;99.90;13.50;98799.00;;;;5042751;28;20188;-69
2023/03/31 14:27:11;;;;;;;2.43;1.43;;;12.40;99.90;14.20;98816.00;;;;5034811;28;20651;-69
2023/03/31 14:30:48;;;;;;;0.40;0.40;;;12.30;99.90;14.10;98826.00;;;;5035185;28;20659;-69
2023/03/31 14:33:35;;;;;;;0.40;0.40;;;12.40;99.90;14.30;98812.00;;;;5042329;28;20738;-69
2023/03/31 14:36:18;;;;;;;0.50;0.50;;;12.30;99.90;14.70;98784.00;;;;5049442;28;20333;-69
2023/03/31 14:38:47;;;;;;;0.40;0.40;;;12.40;99.90;14.40;98807.00;;;;5050061;28;20601;-69
2023/03/31 14:42:00;;;;;;;0.40;0.40;;;12.30;99.90;13.60;98806.00;;;;5035098;28;20248;-69
2023/03/31 14:45:05;;;;;;;1.07;0.93;;;12.10;99.90;13.70;98785.00;;;;5027351;28;20191;-69
2023/03/31 14:48:02;;;;;;;0.40;0.40;;;12.00;99.90;13.40;98807.00;;;;5039953;28;20196;-69
2023/03/31 14:50:58;;;;;;;2.60;0.73;;;11.90;99.90;13.10;98807.00;;;;5037124;28;20596;-69
2023/03/31 14:53:27;;;;;;;0.57;0.57;;;11.90;99.90;13.70;98805.00;;;;5034918;28;20983;-69
2023/03/31 14:56:20;;;;;;;0.40;0.40;;;11.90;99.90;14.20;98805.00;;;;5040937;28;20657;-69
2023/03/31 14:59:31;;;;;;;0.40;0.40;;;12.10;99.90;13.60;98810.00;;;;5034556;28;20207;-69
2023/03/31 15:01:59;;;;;;;0.50;0.50;;;12.00;99.90;13.50;98810.00;;;;5031299;28;20707;-69
2023/03/31 15:04:29;;;;;;;0.50;0.50;;;11.90;99.90;14.10;98807.00;;;;5030878;28;20196;-69
2023/03/31 15:06:59;;;;;;;1.27;0.70;;;12.10;99.90;14.30;98796.00;;;;5041747;28;20236;-69
2023/03/31 15:09:32;;;;;;;0.40;0.40;;;12.20;99.90;14.70;98809.00;;;;5051201;28;20183;-71
2023/03/31 15:12:10;;;;;;;0.50;0.50;;;12.30;99.90;14.30;98788.00;;;;5034899;28;20226;-71
2023/03/31 15:14:54;;;;;;;0.53;0.53;;;12.30;99.90;13.10;98787.00;;;;5031062;28;20190;-71
2023/03/31 15:17:28;;;;;;;0.40;0.40;;;12.00;99.90;13.50;98770.00;;;;5029421;28;20211;-71
2023/03/31 15:20:00;;;;;;;0.40;0.40;;;11.90;99.90;13.30;98794.00;;;;5054368;28;20283;-71
2023/03/31 15:23:23;;;;;;;0.40;0.40;;;11.80;99.90;12.80;98791.00;;;;5038349;28;20241;-70
2023/03/31 15:26:36;;;;;;;0.40;0.40;;;11.40;99.90;13.40;98796.00;;;;5055814;28;20241;-70
2023/03/31 15:29:11;;;;;;;1.13;0.77;;;11.70;99.90;12.90;98791.00;;;;5054635;28;20185;-70
2023/03/31 15:31:39;;;;;;;1.23;1.03;;;11.50;99.90;12.80;98779.00;;;;5043057;28;20365;-70
2023/03/31 15:34:59;;;;;;;3.10;0.73;;;11.60;99.90;14.00;98779.00;;;;5048507;28;20194;-71
2023/03/31 15:37:42;;;;;;;3.30;0.83;;;11.70;99.90;14.10;98732.00;;;;5010365;28;20282;-72
2023/03/31 15:40:31;;;;;;;1.03;0.87;;;11.90;99.90;14.10;98778.00;;;;5037774;28;20218;-70
2023/03/31 15:43:28;;;;;;;1.07;0.97;;;12.00;99.90;12.60;98781.00;;;;5019713;28;20221;-70
2023/03/31 15:46:34;;;;;;;1.93;0.63;;;11.80;99.90;13.60;98774.00;;;;5028243;28;20291;-70
2023/03/31 15:49:22;;;;;;;1.53;1.10;;;11.60;99.90;12.70;98767.00;;;;5055340;28;20199;-70
2023/03/31 15:51:50;;;;;;;5.00;1.10;;;11.70;99.90;12.90;98777.00;;;;5037998;28;20198;-70
2023/03/31 15:54:35;;;;;;;4.80;2.20;;;11.50;99.90;12.10;98782.00;;;;5054590;28;20196;-71
2023/03/31 15:57:31;;;;;;;9.30;1.83;;;11.20;99.90;12.10;98764.00;;;;5055709;28;20290;-71
2023/03/31 16:00:33;;;;;;;5.73;2.00;;;11.10;99.90;11.80;98776.00;;;;5033228;28;20227;-71
2023/03/31 16:03:34;;;;;;;0.40;0.40;;;11.00;99.90;12.60;98787.00;;;;5046745;28;20201;-71
2023/03/31 16:06:27;;;;;;;1.43;0.80;;;11.20;99.90;12.90;98781.00;;;;5031630;28;20281;-72
2023/03/31 16:09:41;;;;;;;4.10;0.97;;;11.40;99.90;13.70;98801.00;;;;5034461;28;20210;-71
2023/03/31 16:12:46;;;;;;;6.97;1.13;;;11.60;99.90;13.00;98775.00;;;;5038199;28;20211;-71
2023/03/31 16:15:39;;;;;;;2.33;0.50;;;11.50;99.90;13.70;98763.00;;;;5052950;28;20184;-71
2023/03/31 16:18:30;;;;;;;0.87;0.87;;;11.60;99.90;13.20;98736.00;;;;5054149;28;20674;-71
2023/03/31 16:21:01;;;;;;;0.50;0.50;;;11.70;99.90;13.60;98769.00;;;;5054915;28;20712;-71
2023/03/31 16:23:57;;;;;;;8.03;1.07;;;11.70;99.90;13.80;98753.00;;;;5037959;28;20188;-71
2023/03/31 16:27:05;;;;;;;3.13;0.83;;;11.80;99.90;12.60;98765.00;;;;5053799;28;20703;-71
2023/03/31 16:29:48;;;;;;;12.90;1.77;;;11.60;99.90;12.60;98748.00;;;;5048569;28;20186;-71
2023/03/31 16:32:35;;;;;;;2.00;1.33;;;11.60;99.90;12.50;98770.00;;;;5035846;28;20223;-71
2023/03/31 16:35:18;;;;;;;6.23;2.20;;;11.50;99.90;13.10;98717.00;;;;5052119;28;20191;-71
2023/03/31 16:38:07;;;;;;;4.03;1.60;;;11.80;99.90;13.30;98768.00;;;;5036135;28;20186;-71
2023/03/31 16:41:14;;;;;;;1.17;0.43;;;11.80;99.90;13.20;98770.00;;;;5035970;28;20186;-71
2023/03/31 16:44:00;;;;;;;2.47;1.00;;;11.70;99.90;13.10;98778.00;;;;5035717;28;20190;-71
2023/03/31 16:47:04;;;;;;;0.40;0.40;;;11.80;99.90;13.60;98765.00;;;;5035648;28;20182;-71
2023/03/31 16:49:50;;;;;;;1.67;0.67;;;11.80;99.90;12.80;98771.00;;;;5035741;28;20191;-71
2023/03/31 16:52:19;;;;;;;2.20;1.07;;;11.70;99.90;12.30;98768.00;;;;5042741;28;20210;-72
2023/03/31 16:55:05;;;;;;;2.37;0.60;;;11.60;99.90;13.10;98735.00;;;;5035606;28;20201;-71
2023/03/31 16:57:33;;;;;;;0.70;0.70;;;11.40;99.90;12.60;98762.00;;;;5053539;28;20268;-72
2023/03/31 17:00:07;;;;;;;2.67;1.20;;;11.40;99.90;13.00;98731.00;;;;5035742;28;20187;-71
2023/03/31 17:02:36;;;;;;;5.60;1.93;;;11.50;99.90;12.40;98775.00;;;;5035272;28;20674;-71
2023/03/31 17:05:02;;;;;;;2.00;1.90;;;11.40;99.90;12.80;98771.00;;;;5049987;28;20217;-71
2023/03/31 17:07:29;;;;;;;4.70;2.13;;;11.30;99.90;12.30;98769.00;;;;5043498;28;20188;-72
2023/03/31 17:10:15;;;;;;;0.67;0.67;;;11.20;99.90;13.50;98769.00;;;;5036608;28;20183;-71
2023/03/31 17:12:44;;;;;;;0.30;0.30;;;11.40;99.90;13.10;98775.00;;;;5051409;28;20211;-71
2023/03/31 17:15:15;;;;;;;7.83;1.13;;;11.40;99.90;13.30;98771.00;;;;5053206;28;20225;-72
2023/03/31 17:17:46;;;;;;;0.80;0.80;;;11.50;99.90;12.50;98775.00;;;;5053614;28;20187;-72
2023/03/31 17:20:12;;;;;;;5.97;1.77;;;11.30;99.90;12.00;98780.00;;;;5054396;28;20185;-71
2023/03/31 17:22:38;;;;;;;0.80;0.80;;;11.20;99.90;12.70;98782.00;;;;5036021;28;20664;-72
2023/03/31 17:25:22;;;;;;;1.07;0.80;;;11.20;99.90;12.70;98746.00;;;;5052645;28;20536;-71
2023/03/31 17:28:08;;;;;;;1.37;1.27;;;11.20;99.90;12.50;98747.00;;;;5028391;28;20593;-71
2023/03/31 17:30:35;;;;;;;2.00;0.60;;;11.10;99.90;12.10;98786.00;;;;5049790;28;20187;-72
2023/03/31 17:33:18;;;;;;;4.53;1.07;;;11.00;99.90;12.80;98796.00;;;;5048689;28;20242;-72
2023/03/31 17:35:57;;;;;;;5.13;2.03;;;11.10;99.90;12.10;98801.00;;;;5035892;28;20676;-71
2023/03/31 17:38:41;;;;;;;0.77;0.77;;;11.10;99.90;12.80;98804.00;;;;5035839;28;20213;-71
2023/03/31 17:41:31;;;;;;;5.00;2.00;;;11.20;99.90;11.40;98797.00;;;;5046112;28;20215;-71
2023/03/31 17:44:15;;;;;;;0.97;0.97;;;10.90;99.90;12.70;98787.00;;;;5030146;28;20200;-71
2023/03/31 17:46:42;;;;;;;0.93;0.93;;;11.00;99.90;11.60;98797.00;;;;5015724;28;20236;-68
2023/03/31 17:49:26;;;;;;;0.30;0.30;;;10.80;99.90;12.80;98793.00;;;;5032472;28;20699;-71
2023/03/31 17:52:14;;;;;;;2.83;1.70;;;11.00;99.90;12.70;98797.00;;;;5026816;28;20284;-70
2023/03/31 17:54:48;;;;;;;14.73;2.73;;;11.10;99.90;12.10;98804.00;;;;5035250;28;20187;-68
2023/03/31 17:57:31;;;;;;;0.80;0.70;;;11.00;99.90;12.20;98818.00;;;;5053083;28;20669;-69
2023/03/31 18:00:02;;;;;;;10.27;3.17;;;10.90;99.90;11.50;98823.00;;;;5052337;28;20525;-70
2023/03/31 18:03:04;;;;;;;13.73;3.07;;;10.70;99.90;11.70;98811.00;;;;5021805;28;20197;-72
2023/03/31 18:05:48;;;;;;;2.90;1.57;;;10.70;99.90;12.10;98820.00;;;;5033145;28;20200;-71
2023/03/31 18:08:17;;;;;;;2.00;1.63;;;10.80;99.90;11.70;98843.00;;;;5050336;28;20225;-71
2023/03/31 18:11:19;;;;;;;12.73;2.47;;;10.80;99.90;12.30;98826.00;;;;5050401;28;20203;-71
2023/03/31 18:13:45;;;;;;;9.87;7.40;;;10.90;99.90;12.40;98803.00;;;;5033694;28;20271;-71
2023/03/31 18:16:19;;;;;;;5.00;2.63;;;11.00;99.90;12.10;98817.00;;;;5052141;28;20222;-71
2023/03/31 18:19:13;;;;;;;0.83;0.60;;;11.00;99.90;13.50;98780.00;;;;5034268;28;20541;-72
2023/03/31 18:21:58;;;;;;;3.13;1.73;;;11.30;99.90;12.20;98774.00;;;;5034472;28;20196;-72
2023/03/31 18:24:24;;;;;;;7.40;1.43;;;11.20;99.90;12.00;98820.00;;;;5033839;28;20577;-72
2023/03/31 18:27:00;;;;;;;6.60;3.63;;;11.00;99.90;12.10;98782.00;;;;5051159;28;20257;-72
2023/03/31 18:29:45;;;;;;;0.50;0.50;;;11.10;99.90;12.70;98836.00;;;;5049999;28;20202;-72
2023/03/31 18:32:29;;;;;;;0.80;0.80;;;11.10;99.90;12.80;98779.00;;;;5034026;28;20242;-72
2023/03/31 18:35:15;;;;;;;0.70;0.70;;;11.10;99.90;12.60;98817.00;;;;5034582;28;20178;-72
2023/03/31 18:37:46;;;;;;;0.93;0.93;;;11.10;99.90;13.50;98819.00;;;;5033821;28;20176;-72
2023/03/31 18:40:30;;;;;;;3.27;1.57;;;11.40;99.90;13.80;98770.00;;;;5033724;28;20260;-72
2023/03/31 18:42:59;;;;;;;0.70;0.70;;;11.40;99.90;13.70;98805.00;;;;5033717;28;20181;-71
2023/03/31 18:45:46;;;;;;;1.27;1.20;;;11.60;99.90;13.00;98818.00;;;;5034113;28;20205;-71
2023/03/31 18:48:33;;;;;;;2.33;2.20;;;11.20;99.90;12.30;98825.00;;;;5034845;28;20182;-71
2023/03/31 18:51:17;;;;;;;7.80;3.80;;;11.20;99.90;12.60;98811.00;;;;5023177;28;20232;-71
2023/03/31 18:54:19;;;;;;;1.70;1.60;;;11.10;99.90;12.70;98771.00;;;;5036536;28;20276;-71
2023/03/31 18:57:20;;;;;;;1.60;1.50;;;11.20;99.90;12.90;98781.00;;;;5035049;28;20194;-71
2023/03/31 19:00:22;;;;;;;1.17;1.17;;;11.10;99.90;12.50;98816.00;;;;5049866;28;20189;-71
2023/03/31 19:03:13;;;;;;;2.07;1.97;;;11.10;99.90;12.80;98831.00;;;;5048518;28;20183;-71
2023/03/31 19:06:04;;;;;;;2.57;1.90;;;11.10;99.90;12.20;98827.00;;;;5032801;28;20187;-72
2023/03/31 19:12:22;;;;;;;1.00;1.00;;;11.00;99.90;12.90;98826.00;;;;5049154;28;20226;-71
2023/03/31 19:15:45;;;;;;;8.13;3.43;;;11.10;99.90;12.70;98825.00;;;;5056459;28;20210;-71
2023/03/31 19:18:59;;;;;;;3.70;2.93;;;11.10;99.90;12.40;98823.00;;;;5043873;28;20185;-71
2023/03/31 19:21:53;;;;;;;1.33;1.33;;;11.00;99.90;12.70;98835.00;;;;5048369;28;20196;-72
2023/03/31 19:24:40;;;;;;;3.03;2.43;;;11.10;99.90;12.30;98819.00;;;;5018614;28;20638;-69
2023/03/31 19:27:23;;;;;;;2.53;2.17;;;11.00;99.90;13.00;98832.00;;;;5035663;28;20193;-72
2023/03/31 19:29:52;;;;;;;1.20;1.20;;;11.10;99.90;12.10;98832.00;;;;5037494;28;20242;-71